Time;durP1;ratioP1;P1;durP2;ratioP2;P2;SDS_P1;SDS_P2;PMS_P1;PMS_P2;Temp;Humidity;BMP_temperature;BMP_pressure;BME280_temperature;BME280_humidity;BME280_pressure;Samples;Min_cycle;Max_cycle;Signal;HPM_P1;HPM_P2
2023/08/31 00:01:30;;;;;;;10.60;3.90;;;;;;;;;;5013476;28;20276;-82
2023/08/31 00:03:59;;;;;;;11.70;3.63;;;;;;;;;;5013727;28;20201;-82
2023/08/31 00:06:26;;;;;;;8.30;3.57;;;;;;;;;;5013600;28;20570;-82
2023/08/31 00:08:54;;;;;;;8.53;3.80;;;;;;;;;;5013408;28;20292;-82
2023/08/31 00:11:22;;;;;;;7.27;3.67;;;;;;;;;;5013261;28;20204;-81
2023/08/31 00:13:49;;;;;;;7.80;3.60;;;;;;;;;;5013067;28;20336;-82
2023/08/31 00:16:17;;;;;;;6.67;3.57;;;;;;;;;;5013305;28;20197;-81
2023/08/31 00:18:44;;;;;;;9.70;3.77;;;;;;;;;;5013285;28;20236;-82
2023/08/31 00:21:12;;;;;;;6.37;4.20;;;;;;;;;;5013295;28;20204;-82
2023/08/31 00:23:39;;;;;;;7.63;4.30;;;;;;;;;;5013408;28;20213;-81
2023/08/31 00:26:08;;;;;;;7.23;3.73;;;;;;;;;;5013532;28;20291;-82
2023/08/31 00:28:38;;;;;;;8.87;4.00;;;;;;;;;;5012671;28;20194;-82
2023/08/31 00:31:06;;;;;;;10.40;3.73;;;;;;;;;;5012973;28;20208;-82
2023/08/31 00:33:34;;;;;;;8.80;4.50;;;;;;;;;;5012968;28;20319;-82
2023/08/31 00:36:03;;;;;;;9.47;4.30;;;;;;;;;;5012871;28;20201;-81
2023/08/31 00:38:30;;;;;;;7.13;4.00;;;;;;;;;;5012466;28;20256;-81
2023/08/31 00:40:58;;;;;;;7.77;3.80;;;;;;;;;;5013106;28;20243;-81
2023/08/31 00:43:25;;;;;;;8.60;3.77;;;;;;;;;;5012647;28;20201;-82
2023/08/31 00:45:58;;;;;;;10.13;3.83;;;;;;;;;;5013369;28;20267;-81
2023/08/31 00:48:26;;;;;;;9.60;4.80;;;;;;;;;;5012651;28;20259;-82
2023/08/31 00:50:53;;;;;;;8.40;3.40;;;;;;;;;;5013121;28;20208;-83
2023/08/31 00:53:21;;;;;;;7.33;3.53;;;;;;;;;;5012450;28;20264;-82
2023/08/31 00:55:48;;;;;;;10.70;3.90;;;;;;;;;;5012255;28;20740;-83
2023/08/31 00:58:16;;;;;;;8.13;4.10;;;;;;;;;;5012436;28;20288;-82
2023/08/31 01:00:48;;;;;;;7.30;4.10;;;;;;;;;;5012260;28;20787;-82
2023/08/31 01:03:19;;;;;;;9.03;3.60;;;;;;;;;;5012433;28;20205;-81
2023/08/31 01:05:53;;;;;;;10.47;4.07;;;;;;;;;;5012541;28;20428;-81
2023/08/31 01:08:23;;;;;;;7.20;3.90;;;;;;;;;;5012528;28;20197;-81
2023/08/31 01:10:56;;;;;;;7.03;3.80;;;;;;;;;;5012162;28;20672;-82
2023/08/31 01:13:25;;;;;;;7.87;4.00;;;;;;;;;;5012291;28;20666;-82
2023/08/31 01:15:55;;;;;;;9.77;3.77;;;;;;;;;;5012672;28;20241;-82
2023/08/31 01:18:25;;;;;;;6.87;4.10;;;;;;;;;;5012661;28;20197;-82
2023/08/31 01:20:57;;;;;;;10.77;4.27;;;;;;;;;;5012384;28;20200;-81
2023/08/31 01:23:29;;;;;;;8.07;4.10;;;;;;;;;;5011864;28;20197;-81
2023/08/31 01:25:58;;;;;;;7.37;4.40;;;;;;;;;;5011943;28;20252;-80
2023/08/31 01:28:26;;;;;;;9.73;4.20;;;;;;;;;;5012402;28;20225;-82
2023/08/31 01:30:53;;;;;;;7.77;4.20;;;;;;;;;;5012090;28;20193;-82
2023/08/31 01:33:20;;;;;;;11.77;4.43;;;;;;;;;;5011813;28;20280;-82
2023/08/31 01:35:52;;;;;;;10.97;4.43;;;;;;;;;;5012450;28;20291;-81
2023/08/31 01:38:22;;;;;;;8.07;4.17;;;;;;;;;;5011859;28;20201;-82
2023/08/31 01:40:53;;;;;;;5.70;4.10;;;;;;;;;;5011456;28;20236;-82
2023/08/31 01:43:23;;;;;;;8.77;4.10;;;;;;;;;;4994097;28;20684;-82
2023/08/31 01:45:51;;;;;;;11.73;4.10;;;;;;;;;;5012069;28;20284;-81
2023/08/31 01:48:18;;;;;;;8.83;3.57;;;;;;;;;;5011437;28;20635;-81
2023/08/31 01:50:46;;;;;;;7.13;3.80;;;;;;;;;;5011693;28;20654;-82
2023/08/31 01:53:13;;;;;;;7.17;3.90;;;;;;;;;;5011557;28;20287;-81
2023/08/31 01:55:41;;;;;;;11.20;4.40;;;;;;;;;;5010706;28;20320;-82
2023/08/31 01:58:08;;;;;;;11.30;4.10;;;;;;;;;;5011688;28;20567;-82
2023/08/31 02:00:38;;;;;;;8.37;4.13;;;;;;;;;;5011161;28;20249;-81
2023/08/31 02:03:07;;;;;;;7.80;4.13;;;;;;;;;;5011706;28;20224;-82
2023/08/31 02:05:35;;;;;;;8.47;4.00;;;;;;;;;;5011913;28;20197;-81
2023/08/31 02:08:02;;;;;;;10.80;3.90;;;;;;;;;;5011569;28;20208;-82
2023/08/31 02:10:29;;;;;;;9.57;4.27;;;;;;;;;;5011270;28;20205;-81
2023/08/31 02:12:56;;;;;;;10.17;4.60;;;;;;;;;;5011641;28;20209;-82
2023/08/31 02:15:24;;;;;;;13.67;4.23;;;;;;;;;;5011209;28;20659;-82
2023/08/31 02:17:52;;;;;;;11.17;4.10;;;;;;;;;;5013687;28;20288;-81
2023/08/31 02:20:20;;;;;;;8.70;4.40;;;;;;;;;;5007293;28;20643;-81
2023/08/31 02:22:48;;;;;;;12.67;4.63;;;;;;;;;;4997587;28;20576;-82
2023/08/31 02:25:16;;;;;;;14.37;5.07;;;;;;;;;;4998562;28;20201;-82
2023/08/31 02:27:44;;;;;;;14.10;4.43;;;;;;;;;;4998294;28;20198;-82
2023/08/31 02:30:11;;;;;;;9.73;4.47;;;;;;;;;;4998220;28;20201;-82
2023/08/31 02:32:39;;;;;;;8.63;4.20;;;;;;;;;;5017461;28;20227;-82
2023/08/31 02:35:09;;;;;;;11.63;4.40;;;;;;;;;;5017658;28;20307;-83
2023/08/31 02:37:36;;;;;;;11.93;4.63;;;;;;;;;;5017598;28;20576;-82
2023/08/31 02:40:03;;;;;;;11.23;4.27;;;;;;;;;;5018058;28;20254;-82
2023/08/31 02:42:31;;;;;;;10.87;4.50;;;;;;;;;;5017797;28;20207;-82
2023/08/31 02:44:58;;;;;;;14.20;4.53;;;;;;;;;;5017618;28;20231;-82
2023/08/31 02:47:26;;;;;;;13.33;4.80;;;;;;;;;;5017601;28;20296;-81
2023/08/31 02:49:53;;;;;;;10.73;3.90;;;;;;;;;;5018154;28;20228;-82
2023/08/31 02:52:22;;;;;;;12.60;4.30;;;;;;;;;;5017354;28;20288;-82
2023/08/31 02:54:50;;;;;;;12.17;4.67;;;;;;;;;;5017234;28;20271;-82
2023/08/31 02:57:19;;;;;;;12.27;4.33;;;;;;;;;;5017566;28;20231;-82
2023/08/31 02:59:46;;;;;;;8.67;4.13;;;;;;;;;;5017549;28;20232;-82
2023/08/31 03:02:15;;;;;;;7.17;4.10;;;;;;;;;;5017491;28;20200;-82
2023/08/31 03:04:42;;;;;;;13.93;4.70;;;;;;;;;;5017560;28;20271;-82
2023/08/31 03:07:13;;;;;;;8.47;4.30;;;;;;;;;;5017601;28;20760;-82
2023/08/31 03:09:42;;;;;;;10.17;4.63;;;;;;;;;;5017341;28;20209;-82
2023/08/31 03:12:09;;;;;;;8.67;4.00;;;;;;;;;;5017432;28;20228;-82
2023/08/31 03:14:36;;;;;;;9.67;4.23;;;;;;;;;;5017901;28;20311;-82
2023/08/31 03:17:04;;;;;;;14.90;4.60;;;;;;;;;;5017790;28;20224;-82
2023/08/31 03:19:31;;;;;;;10.17;3.93;;;;;;;;;;5017143;28;20193;-82
2023/08/31 03:21:58;;;;;;;11.37;4.13;;;;;;;;;;5016917;28;20692;-82
2023/08/31 03:24:25;;;;;;;9.17;3.80;;;;;;;;;;5017807;28;20263;-82
2023/08/31 03:26:54;;;;;;;14.27;4.03;;;;;;;;;;5016904;28;20200;-82
2023/08/31 03:29:22;;;;;;;13.17;4.00;;;;;;;;;;5013290;28;20288;-83
2023/08/31 03:31:49;;;;;;;11.67;4.07;;;;;;;;;;5014283;28;20197;-83
2023/08/31 03:34:17;;;;;;;10.00;4.30;;;;;;;;;;5013892;28;20207;-82
2023/08/31 03:36:44;;;;;;;12.80;4.47;;;;;;;;;;5013674;28;20677;-82
2023/08/31 03:39:12;;;;;;;9.27;4.00;;;;;;;;;;5014099;28;20703;-82
2023/08/31 03:41:39;;;;;;;9.97;3.93;;;;;;;;;;5014028;28;20237;-83
2023/08/31 03:44:09;;;;;;;10.27;4.13;;;;;;;;;;5014182;28;20202;-83
2023/08/31 03:46:36;;;;;;;9.70;3.80;;;;;;;;;;5014027;28;20201;-82
2023/08/31 03:49:04;;;;;;;10.73;3.87;;;;;;;;;;5013926;28;20585;-82
2023/08/31 03:51:31;;;;;;;12.03;4.17;;;;;;;;;;5014337;28;20721;-82
2023/08/31 03:53:59;;;;;;;13.00;4.00;;;;;;;;;;5013994;28;20228;-82
2023/08/31 03:56:27;;;;;;;7.97;3.93;;;;;;;;;;5013389;28;20229;-82
2023/08/31 03:58:54;;;;;;;12.93;4.30;;;;;;;;;;5013689;28;20260;-82
2023/08/31 04:01:23;;;;;;;12.83;4.20;;;;;;;;;;5013709;28;20300;-82
2023/08/31 04:03:51;;;;;;;10.43;4.03;;;;;;;;;;5013743;28;20597;-82
2023/08/31 04:06:18;;;;;;;9.77;3.97;;;;;;;;;;5013469;28;20300;-81
2023/08/31 04:08:46;;;;;;;10.73;3.80;;;;;;;;;;5013716;28;20363;-82
2023/08/31 04:11:13;;;;;;;7.80;3.80;;;;;;;;;;5013660;28;20235;-82
2023/08/31 04:13:40;;;;;;;13.10;4.07;;;;;;;;;;5013398;28;20296;-82
2023/08/31 04:16:08;;;;;;;7.60;3.67;;;;;;;;;;5013583;28;20311;-83
2023/08/31 04:18:37;;;;;;;10.13;3.87;;;;;;;;;;5013286;28;20651;-82
2023/08/31 04:21:04;;;;;;;11.00;3.83;;;;;;;;;;5013200;28;20228;-82
2023/08/31 04:23:32;;;;;;;12.80;3.83;;;;;;;;;;5012914;28;20284;-82
2023/08/31 04:25:59;;;;;;;11.20;3.70;;;;;;;;;;5013413;28;20224;-82
2023/08/31 04:28:27;;;;;;;9.10;3.50;;;;;;;;;;5013104;28;20670;-83
2023/08/31 04:30:54;;;;;;;11.13;3.23;;;;;;;;;;5013219;28;20283;-82
2023/08/31 04:33:22;;;;;;;11.23;3.23;;;;;;;;;;5012776;28;20197;-82
2023/08/31 04:35:51;;;;;;;9.13;2.83;;;;;;;;;;5013132;28;20225;-82
2023/08/31 04:38:18;;;;;;;11.63;3.97;;;;;;;;;;5012698;28;20295;-82
2023/08/31 04:40:46;;;;;;;13.27;3.30;;;;;;;;;;5012388;28;20209;-82
2023/08/31 04:43:13;;;;;;;10.87;3.37;;;;;;;;;;5013121;28;20197;-82
2023/08/31 04:45:41;;;;;;;11.23;3.10;;;;;;;;;;5012814;28;20744;-82
2023/08/31 04:48:08;;;;;;;13.33;3.33;;;;;;;;;;5012318;28;20237;-82
2023/08/31 04:50:35;;;;;;;13.27;3.33;;;;;;;;;;5012666;28;20232;-82
2023/08/31 04:53:04;;;;;;;10.87;3.97;;;;;;;;;;5012827;28;20297;-82
2023/08/31 04:55:31;;;;;;;13.03;3.57;;;;;;;;;;5012428;28;20264;-82
2023/08/31 04:57:58;;;;;;;9.87;3.77;;;;;;;;;;5013104;28;20228;-82
2023/08/31 05:00:26;;;;;;;11.87;4.87;;;;;;;;;;5012273;28;20433;-82
2023/08/31 05:02:53;;;;;;;9.60;3.40;;;;;;;;;;5012006;28;20635;-82
2023/08/31 05:05:21;;;;;;;10.77;3.23;;;;;;;;;;4994966;28;20197;-82
2023/08/31 05:07:48;;;;;;;11.93;3.10;;;;;;;;;;5012508;28;20287;-82
2023/08/31 05:10:18;;;;;;;9.17;2.93;;;;;;;;;;5012537;28;20616;-82
2023/08/31 05:12:45;;;;;;;14.17;3.63;;;;;;;;;;5012524;28;20201;-82
2023/08/31 05:15:12;;;;;;;8.80;2.80;;;;;;;;;;5012304;28;20316;-82
2023/08/31 05:17:40;;;;;;;9.73;3.43;;;;;;;;;;5012179;28;20334;-82
2023/08/31 05:20:09;;;;;;;8.23;2.97;;;;;;;;;;5012164;28;20228;-82
2023/08/31 05:22:37;;;;;;;12.40;3.53;;;;;;;;;;5012278;28;20197;-82
2023/08/31 05:25:05;;;;;;;10.67;3.50;;;;;;;;;;5012289;28;20208;-83
2023/08/31 05:27:34;;;;;;;8.73;3.20;;;;;;;;;;5012406;28;20256;-82
2023/08/31 05:30:02;;;;;;;11.43;3.57;;;;;;;;;;5011938;28;20708;-83
2023/08/31 05:32:30;;;;;;;10.00;2.77;;;;;;;;;;5011594;28;20211;-83
2023/08/31 05:34:59;;;;;;;11.97;3.70;;;;;;;;;;5012233;28;20706;-85
2023/08/31 05:37:26;;;;;;;14.73;3.67;;;;;;;;;;5012646;28;20736;-85
2023/08/31 05:39:54;;;;;;;10.73;3.27;;;;;;;;;;5012304;28;20677;-86
2023/08/31 05:42:21;;;;;;;11.90;3.60;;;;;;;;;;5012775;28;20232;-85
2023/08/31 05:44:50;;;;;;;11.47;3.60;;;;;;;;;;5011836;28;20236;-84
2023/08/31 05:47:17;;;;;;;12.03;4.10;;;;;;;;;;5012182;28;20276;-85
2023/08/31 05:49:45;;;;;;;10.83;4.30;;;;;;;;;;5012151;28;20197;-86
2023/08/31 05:52:12;;;;;;;11.37;4.00;;;;;;;;;;5011737;28;20690;-85
2023/08/31 05:54:39;;;;;;;8.83;3.87;;;;;;;;;;5013146;28;20307;-86
2023/08/31 05:57:07;;;;;;;11.23;3.90;;;;;;;;;;5013057;28;20260;-87
2023/08/31 05:59:34;;;;;;;11.97;3.90;;;;;;;;;;5011556;28;20283;-82
2023/08/31 06:02:04;;;;;;;9.20;3.93;;;;;;;;;;5011421;28;20236;-82
2023/08/31 06:04:31;;;;;;;16.60;4.50;;;;;;;;;;5011875;28;20206;-83
2023/08/31 06:06:58;;;;;;;12.50;4.50;;;;;;;;;;5011867;28;20201;-84
2023/08/31 06:09:26;;;;;;;14.40;4.00;;;;;;;;;;5011615;28;20320;-84
2023/08/31 06:11:53;;;;;;;9.80;3.97;;;;;;;;;;5011423;28;20233;-83
2023/08/31 06:14:20;;;;;;;13.90;4.30;;;;;;;;;;5011856;28;20197;-82
2023/08/31 06:16:47;;;;;;;10.37;4.57;;;;;;;;;;5011495;28;20260;-83
2023/08/31 06:19:16;;;;;;;11.47;4.60;;;;;;;;;;5011399;28;20251;-83
2023/08/31 06:21:43;;;;;;;11.87;4.80;;;;;;;;;;5007136;28;20205;-85
2023/08/31 06:24:12;;;;;;;7.57;4.17;;;;;;;;;;4992505;28;20198;-85
2023/08/31 06:26:40;;;;;;;12.27;4.30;;;;;;;;;;5005433;28;20205;-84
2023/08/31 06:29:07;;;;;;;10.83;4.50;;;;;;;;;;5011865;28;20231;-85
2023/08/31 06:31:35;;;;;;;10.77;4.27;;;;;;;;;;5011874;28;20197;-84
2023/08/31 06:34:04;;;;;;;10.77;4.77;;;;;;;;;;5011782;28;20765;-84
2023/08/31 06:36:32;;;;;;;8.90;4.23;;;;;;;;;;5012099;28;20319;-84
2023/08/31 06:38:59;;;;;;;12.83;4.37;;;;;;;;;;5000399;28;20240;-84
2023/08/31 06:41:27;;;;;;;13.53;3.90;;;;;;;;;;5002478;28;20292;-84
2023/08/31 06:43:54;;;;;;;10.53;4.00;;;;;;;;;;5011376;28;20287;-85
2023/08/31 06:46:21;;;;;;;12.37;4.60;;;;;;;;;;5011554;28;20649;-84
2023/08/31 06:48:49;;;;;;;12.53;4.67;;;;;;;;;;5011857;28;20232;-86
2023/08/31 06:51:16;;;;;;;11.93;4.23;;;;;;;;;;5012388;28;20201;-85
2023/08/31 06:53:45;;;;;;;11.80;4.50;;;;;;;;;;5011831;28;20760;-85
2023/08/31 06:56:12;;;;;;;12.50;3.70;;;;;;;;;;5011854;28;20764;-86
2023/08/31 06:58:39;;;;;;;10.70;3.93;;;;;;;;;;5011373;28;20284;-85
2023/08/31 07:01:07;;;;;;;9.37;3.87;;;;;;;;;;5012083;28;21365;-86
2023/08/31 07:03:34;;;;;;;9.37;3.77;;;;;;;;;;5014155;28;20570;-85
2023/08/31 07:06:02;;;;;;;10.97;4.00;;;;;;;;;;5015910;28;20295;-85
2023/08/31 07:08:30;;;;;;;8.73;4.47;;;;;;;;;;5015550;28;20212;-84
2023/08/31 07:10:59;;;;;;;12.13;4.43;;;;;;;;;;5015013;28;20292;-85
2023/08/31 07:13:26;;;;;;;11.17;4.87;;;;;;;;;;5014471;28;20223;-83
2023/08/31 07:15:54;;;;;;;12.23;4.27;;;;;;;;;;5015224;28;20304;-86
2023/08/31 07:18:21;;;;;;;8.03;4.40;;;;;;;;;;5015221;28;20206;-86
2023/08/31 07:20:48;;;;;;;14.63;5.03;;;;;;;;;;5015294;28;20238;-87
2023/08/31 07:23:15;;;;;;;13.43;4.80;;;;;;;;;;5015494;28;20264;-87
2023/08/31 07:25:43;;;;;;;10.40;4.73;;;;;;;;;;5015648;28;20221;-87
2023/08/31 07:28:12;;;;;;;10.20;4.67;;;;;;;;;;5015180;28;20193;-86
2023/08/31 07:30:39;;;;;;;10.73;5.10;;;;;;;;;;5015204;28;20254;-86
2023/08/31 07:33:07;;;;;;;9.97;4.73;;;;;;;;;;5015030;28;20654;-86
2023/08/31 07:35:35;;;;;;;14.30;4.83;;;;;;;;;;4997938;28;20565;-86
2023/08/31 07:38:02;;;;;;;10.97;5.50;;;;;;;;;;5015369;28;20627;-86
2023/08/31 07:40:30;;;;;;;8.63;4.80;;;;;;;;;;5015350;28;20205;-87
2023/08/31 07:42:57;;;;;;;12.00;4.73;;;;;;;;;;5015175;28;20226;-86
2023/08/31 07:45:26;;;;;;;9.97;4.70;;;;;;;;;;5015312;28;20287;-86
2023/08/31 07:47:53;;;;;;;6.53;3.50;;;;;;;;;;5015361;28;20231;-85
2023/08/31 07:50:20;;;;;;;6.50;3.93;;;;;;;;;;5014479;28;20581;-86
2023/08/31 07:52:47;;;;;;;6.33;3.17;;;;;;;;;;5014966;28;20271;-86
2023/08/31 07:55:15;;;;;;;6.90;3.20;;;;;;;;;;5014729;28;20201;-87
2023/08/31 07:57:43;;;;;;;5.30;3.63;;;;;;;;;;5014223;28;20261;-86
2023/08/31 08:00:10;;;;;;;5.03;2.93;;;;;;;;;;5014897;28;20271;-86
2023/08/31 08:02:39;;;;;;;5.93;3.67;;;;;;;;;;5015126;28;20201;-87
2023/08/31 08:05:07;;;;;;;5.90;2.77;;;;;;;;;;5015327;28;20197;-87
2023/08/31 08:07:35;;;;;;;3.73;2.70;;;;;;;;;;5015021;28;20624;-86
2023/08/31 08:10:02;;;;;;;5.03;3.10;;;;;;;;;;5014226;28;20240;-87
2023/08/31 08:12:38;;;;;;;4.00;3.20;;;;;;;;;;5014757;28;20217;-87
2023/08/31 08:15:05;;;;;;;3.60;2.77;;;;;;;;;;5014692;28;20204;-87
2023/08/31 08:17:33;;;;;;;4.93;3.35;;;;;;;;;;5014657;28;20229;-87
2023/08/31 08:20:03;;;;;;;4.00;3.60;;;;;;;;;;5014807;28;20292;-86
2023/08/31 08:22:30;;;;;;;5.70;4.00;;;;;;;;;;5014980;28;20205;-87
2023/08/31 08:24:58;;;;;;;6.45;4.00;;;;;;;;;;5014522;28;20228;-87
2023/08/31 08:27:25;;;;;;;4.82;4.10;;;;;;;;;;5014438;28;20628;-87
2023/08/31 08:29:53;;;;;;;7.00;4.40;;;;;;;;;;5014551;28;20275;-88
2023/08/31 08:32:20;;;;;;;7.70;4.30;;;;;;;;;;5014104;28;20240;-87
2023/08/31 08:34:48;;;;;;;4.68;4.07;;;;;;;;;;5014427;28;20728;-86
2023/08/31 08:37:17;;;;;;;5.22;4.00;;;;;;;;;;5014064;28;20319;-86
2023/08/31 08:39:44;;;;;;;4.90;4.10;;;;;;;;;;5013691;28;20737;-87
2023/08/31 08:42:12;;;;;;;7.07;4.65;;;;;;;;;;5014181;28;20244;-88
2023/08/31 08:44:40;;;;;;;7.10;4.32;;;;;;;;;;5014413;28;20276;-88
2023/08/31 08:47:08;;;;;;;6.13;4.45;;;;;;;;;;5014401;28;20644;-86
2023/08/31 08:49:36;;;;;;;6.45;4.88;;;;;;;;;;5014100;28;20236;-88
2023/08/31 08:52:04;;;;;;;6.88;4.68;;;;;;;;;;5014167;28;20207;-87
2023/08/31 08:54:33;;;;;;;7.03;4.63;;;;;;;;;;5013332;28;20292;-87
2023/08/31 08:57:03;;;;;;;5.82;4.30;;;;;;;;;;5013416;28;20317;-88
2023/08/31 08:59:32;;;;;;;5.60;4.45;;;;;;;;;;5013879;28;20244;-89
2023/08/31 09:01:59;;;;;;;5.47;4.13;;;;;;;;;;5014030;28;20276;-86
2023/08/31 09:04:27;;;;;;;6.03;4.18;;;;;;;;;;5013274;28;20240;-85
2023/08/31 09:06:55;;;;;;;4.70;4.18;;;;;;;;;;5013597;28;20193;-86
2023/08/31 09:09:22;;;;;;;4.57;4.15;;;;;;;;;;5012344;28;20282;-85
2023/08/31 09:11:51;;;;;;;4.45;4.05;;;;;;;;;;5012739;28;20244;-87
2023/08/31 09:14:20;;;;;;;4.78;4.15;;;;;;;;;;5013567;28;20201;-88
2023/08/31 09:16:47;;;;;;;4.70;4.03;;;;;;;;;;5012998;28;20229;-86
2023/08/31 09:19:22;;;;;;;5.05;4.50;;;;;;;;;;5013227;28;20313;-86
2023/08/31 09:21:50;;;;;;;6.03;4.03;;;;;;;;;;5013012;28;20239;-87
2023/08/31 09:24:18;;;;;;;4.60;3.80;;;;;;;;;;5012605;28;20250;-87
2023/08/31 09:26:46;;;;;;;5.07;3.90;;;;;;;;;;5012111;28;20204;-86
2023/08/31 09:29:15;;;;;;;4.45;3.75;;;;;;;;;;5013124;28;20185;-86
2023/08/31 09:31:46;;;;;;;10.82;3.88;;;;;;;;;;5012818;28;20283;-87
2023/08/31 09:34:14;;;;;;;3.90;3.60;;;;;;;;;;5012299;28;20741;-86
2023/08/31 09:36:41;;;;;;;4.43;3.83;;;;;;;;;;5012719;28;20315;-86
2023/08/31 09:39:09;;;;;;;5.10;4.25;;;;;;;;;;5012701;28;20205;-87
2023/08/31 09:41:37;;;;;;;4.22;3.83;;;;;;;;;;5013222;28;20185;-87
2023/08/31 09:44:18;;;;;;;4.70;4.03;;;;;;;;;;5013055;28;20255;-87
2023/08/31 09:46:49;;;;;;;6.55;4.60;;;;;;;;;;4995394;28;20216;-86
2023/08/31 09:49:18;;;;;;;5.85;4.70;;;;;;;;;;5013201;28;20232;-87
2023/08/31 09:51:46;;;;;;;5.43;4.72;;;;;;;;;;5012952;28;20205;-87
2023/08/31 09:54:15;;;;;;;5.57;4.82;;;;;;;;;;5010959;28;20237;-86
2023/08/31 09:56:43;;;;;;;6.53;5.43;;;;;;;;;;5012449;28;20225;-85
2023/08/31 09:59:11;;;;;;;8.02;5.20;;;;;;;;;;5011670;28;20264;-88
2023/08/31 10:01:40;;;;;;;5.72;4.70;;;;;;;;;;5012062;28;20232;-86
2023/08/31 10:04:08;;;;;;;5.35;4.85;;;;;;;;;;5010846;28;20237;-85
2023/08/31 10:06:37;;;;;;;5.75;4.68;;;;;;;;;;5008965;28;20205;-84
2023/08/31 10:09:09;;;;;;;5.63;4.38;;;;;;;;;;5006500;28;20209;-87
2023/08/31 10:11:37;;;;;;;6.20;5.28;;;;;;;;;;5006587;28;20193;-86
2023/08/31 10:14:05;;;;;;;5.00;4.50;;;;;;;;;;5014641;28;20193;-87
2023/08/31 10:16:33;;;;;;;5.20;4.70;;;;;;;;;;5017295;28;20206;-84
2023/08/31 10:19:02;;;;;;;6.85;4.97;;;;;;;;;;5017100;28;20208;-85
2023/08/31 10:21:30;;;;;;;4.78;4.30;;;;;;;;;;5012185;28;20208;-85
2023/08/31 10:23:57;;;;;;;4.43;3.80;;;;;;;;;;5014486;28;20193;-86
2023/08/31 10:26:25;;;;;;;4.07;3.67;;;;;;;;;;5015879;28;20216;-86
2023/08/31 10:28:53;;;;;;;4.68;4.28;;;;;;;;;;5012430;28;20231;-86
2023/08/31 10:31:22;;;;;;;4.60;3.80;;;;;;;;;;5008526;28;20225;-88
2023/08/31 10:33:57;;;;;;;3.72;3.40;;;;;;;;;;4992753;28;20244;-87
2023/08/31 10:36:36;;;;;;;3.72;3.30;;;;;;;;;;4992276;28;20202;-87
2023/08/31 10:39:15;;;;;;;3.65;3.30;;;;;;;;;;4995824;28;20288;-89
2023/08/31 10:41:43;;;;;;;3.92;3.53;;;;;;;;;;4999968;28;20212;-87
2023/08/31 10:44:23;;;;;;;4.75;3.60;;;;;;;;;;5008701;28;20190;-89
2023/08/31 10:46:51;;;;;;;4.05;3.63;;;;;;;;;;5010969;28;20208;-85
2023/08/31 10:49:25;;;;;;;3.92;3.25;;;;;;;;;;5015853;28;20205;-88
2023/08/31 10:51:58;;;;;;;3.70;3.33;;;;;;;;;;5016332;28;20650;-88
2023/08/31 10:54:26;;;;;;;3.80;3.22;;;;;;;;;;5017063;28;20735;-89
2023/08/31 10:56:54;;;;;;;4.28;3.40;;;;;;;;;;5011969;28;20226;-87
2023/08/31 10:59:22;;;;;;;3.65;3.00;;;;;;;;;;5014337;28;20276;-87
2023/08/31 11:01:59;;;;;;;4.85;3.50;;;;;;;;;;5015943;28;20225;-88
2023/08/31 11:04:28;;;;;;;3.88;3.00;;;;;;;;;;5016365;28;20204;-90
2023/08/31 11:07:19;;;;;;;3.15;2.85;;;;;;;;;;5015232;28;20201;-87
2023/08/31 11:09:47;;;;;;;3.38;2.67;;;;;;;;;;5015322;28;20287;-86
2023/08/31 11:12:14;;;;;;;2.90;2.70;;;;;;;;;;5015277;28;20197;-86
2023/08/31 11:14:42;;;;;;;3.22;2.92;;;;;;;;;;5016452;28;20202;-86
2023/08/31 11:17:09;;;;;;;3.55;3.25;;;;;;;;;;5015334;28;20275;-89
2023/08/31 11:19:37;;;;;;;3.72;3.15;;;;;;;;;;5014945;28;20665;-86
2023/08/31 11:22:05;;;;;;;3.88;3.03;;;;;;;;;;5016370;28;20232;-88
2023/08/31 11:24:40;;;;;;;3.63;3.30;;;;;;;;;;5016238;28;20209;-88
2023/08/31 11:27:13;;;;;;;3.50;2.95;;;;;;;;;;5016986;28;20258;-88
2023/08/31 11:29:44;;;;;;;3.47;3.17;;;;;;;;;;5017237;28;20208;-92
2023/08/31 11:32:11;;;;;;;3.63;3.33;;;;;;;;;;5017017;28;20190;-88
2023/08/31 11:34:43;;;;;;;3.95;3.53;;;;;;;;;;5016223;28;20607;-90
2023/08/31 11:37:11;;;;;;;3.88;3.35;;;;;;;;;;5016317;28;20255;-90
2023/08/31 11:39:53;;;;;;;3.00;2.80;;;;;;;;;;5016765;28;20256;-89
2023/08/31 11:42:22;;;;;;;2.70;2.50;;;;;;;;;;5013892;28;20212;-90
2023/08/31 11:44:54;;;;;;;3.17;2.67;;;;;;;;;;5016031;28;20197;-89
2023/08/31 11:47:40;;;;;;;2.88;2.67;;;;;;;;;;5015634;28;20237;-90
2023/08/31 11:50:08;;;;;;;2.75;2.55;;;;;;;;;;5014214;28;20212;-88
2023/08/31 11:52:42;;;;;;;2.35;2.15;;;;;;;;;;5015625;28;20205;-87
2023/08/31 11:55:12;;;;;;;3.80;2.83;;;;;;;;;;5015523;28;20603;-88
2023/08/31 11:57:41;;;;;;;2.30;2.10;;;;;;;;;;4998642;28;20249;-88
2023/08/31 12:00:19;;;;;;;;;;;;;;;;;;;;;
2023/08/31 12:02:49;;;;;;;2.58;2.20;;;;;;;;;;4994933;28;20194;-86
2023/08/31 12:05:16;;;;;;;2.58;2.00;;;;;;;;;;4995886;28;20304;-87
2023/08/31 12:07:43;;;;;;;2.63;2.30;;;;;;;;;;4995457;28;20233;-86
2023/08/31 12:10:11;;;;;;;2.47;2.28;;;;;;;;;;4995428;28;20205;-87
2023/08/31 12:12:38;;;;;;;2.85;2.33;;;;;;;;;;4995686;28;20198;-86
2023/08/31 12:15:08;;;;;;;3.30;2.70;;;;;;;;;;4995255;28;20197;-86
2023/08/31 12:17:39;;;;;;;3.22;2.42;;;;;;;;;;5003955;28;20229;-86
2023/08/31 12:20:07;;;;;;;2.30;2.10;;;;;;;;;;5014089;28;20225;-85
2023/08/31 12:22:35;;;;;;;2.45;2.25;;;;;;;;;;5014149;28;20197;-84
2023/08/31 12:25:08;;;;;;;3.70;2.22;;;;;;;;;;5014404;28;20247;-85
2023/08/31 12:27:36;;;;;;;2.50;2.08;;;;;;;;;;5014639;28;20209;-86
2023/08/31 12:30:03;;;;;;;2.65;2.20;;;;;;;;;;5002702;28;20202;-85
2023/08/31 12:32:32;;;;;;;4.30;2.03;;;;;;;;;;4994644;28;20206;-85
2023/08/31 12:34:59;;;;;;;3.45;2.17;;;;;;;;;;4994812;28;20288;-86
2023/08/31 12:37:30;;;;;;;2.42;1.90;;;;;;;;;;4996059;28;20248;-86
2023/08/31 12:39:58;;;;;;;2.53;1.80;;;;;;;;;;5014461;28;20205;-87
2023/08/31 12:42:25;;;;;;;3.17;1.90;;;;;;;;;;5013811;28;20227;-87
2023/08/31 12:44:52;;;;;;;3.08;1.58;;;;;;;;;;5014615;28;20205;-86
2023/08/31 12:47:20;;;;;;;2.17;1.50;;;;;;;;;;5014136;28;20201;-87
2023/08/31 12:49:51;;;;;;;2.85;1.58;;;;;;;;;;5012454;28;20254;-86
2023/08/31 12:52:18;;;;;;;2.45;1.80;;;;;;;;;;5010634;28;20292;-87
2023/08/31 12:54:46;;;;;;;3.33;1.70;;;;;;;;;;5019046;28;20201;-87
2023/08/31 12:57:13;;;;;;;2.67;1.40;;;;;;;;;;5014211;28;20209;-90
2023/08/31 12:59:41;;;;;;;1.83;1.52;;;;;;;;;;5011888;28;20243;-86
2023/08/31 13:02:19;;;;;;;1.58;1.48;;;;;;;;;;5014718;28;20953;-88
2023/08/31 13:04:47;;;;;;;2.40;1.70;;;;;;;;;;5012545;28;20257;-88
2023/08/31 13:07:15;;;;;;;3.38;1.60;;;;;;;;;;5013647;28;20197;-90
2023/08/31 13:09:43;;;;;;;2.13;1.52;;;;;;;;;;5013960;28;20711;-94
2023/08/31 13:12:10;;;;;;;2.40;1.60;;;;;;;;;;5013581;28;20577;-90
2023/08/31 13:14:38;;;;;;;2.00;1.67;;;;;;;;;;5012343;28;20212;-87
2023/08/31 13:17:06;;;;;;;1.50;1.35;;;;;;;;;;5011986;28;20208;-90
2023/08/31 13:19:33;;;;;;;4.53;1.30;;;;;;;;;;5013828;28;20702;-88
2023/08/31 13:22:01;;;;;;;1.40;1.15;;;;;;;;;;5009250;28;20292;-88
2023/08/31 13:24:29;;;;;;;3.22;1.70;;;;;;;;;;5010380;28;20216;-88
2023/08/31 13:26:57;;;;;;;1.92;1.27;;;;;;;;;;5013305;28;20705;-90
2023/08/31 13:29:24;;;;;;;1.88;1.08;;;;;;;;;;5013326;28;20255;-89
2023/08/31 13:31:55;;;;;;;2.08;1.02;;;;;;;;;;5012382;28;20209;-90
2023/08/31 13:34:22;;;;;;;1.70;1.15;;;;;;;;;;5013320;28;20240;-89
2023/08/31 13:36:49;;;;;;;1.90;1.00;;;;;;;;;;5013599;28;20225;-91
2023/08/31 13:42:01;;;;;;;1.90;1.30;;;;;;;;;;5009510;28;20209;-90
2023/08/31 13:44:29;;;;;;;2.17;1.23;;;;;;;;;;5013428;28;20216;-93
2023/08/31 13:46:58;;;;;;;1.45;1.17;;;;;;;;;;5010957;28;20209;-90
2023/08/31 13:49:25;;;;;;;1.52;1.20;;;;;;;;;;5012087;28;20216;-90
2023/08/31 13:51:52;;;;;;;1.95;0.90;;;;;;;;;;5010563;28;20267;-90
2023/08/31 13:54:20;;;;;;;2.70;1.20;;;;;;;;;;5010295;28;20209;-90
2023/08/31 13:56:51;;;;;;;1.17;1.00;;;;;;;;;;4998786;28;20201;-90
2023/08/31 13:59:20;;;;;;;2.08;1.23;;;;;;;;;;5006978;28;20241;-90
2023/08/31 14:01:47;;;;;;;2.33;1.05;;;;;;;;;;5013660;28;20725;-90
2023/08/31 14:04:15;;;;;;;1.40;0.93;;;;;;;;;;5012206;28;20208;-90
2023/08/31 14:06:51;;;;;;;1.77;1.10;;;;;;;;;;5013166;28;20740;-90
2023/08/31 14:09:18;;;;;;;3.38;1.25;;;;;;;;;;4999553;28;20251;-92
2023/08/31 14:11:46;;;;;;;2.08;1.15;;;;;;;;;;4994126;28;20217;-92
2023/08/31 14:14:14;;;;;;;1.48;1.20;;;;;;;;;;5009359;28;20267;-89
2023/08/31 14:16:43;;;;;;;1.35;1.23;;;;;;;;;;5013687;28;20268;-92
2023/08/31 14:19:12;;;;;;;3.05;1.63;;;;;;;;;;5013339;28;20217;-90
2023/08/31 14:21:39;;;;;;;1.80;1.20;;;;;;;;;;5011348;28;20205;-91
2023/08/31 14:24:07;;;;;;;4.28;1.30;;;;;;;;;;5004374;28;20271;-88
2023/08/31 14:26:34;;;;;;;2.53;1.08;;;;;;;;;;4994140;28;20237;-91
2023/08/31 14:29:02;;;;;;;2.75;1.05;;;;;;;;;;5003062;28;20197;-93
2023/08/31 14:31:29;;;;;;;1.92;1.13;;;;;;;;;;5001905;28;20209;-91
2023/08/31 14:34:11;;;;;;;3.15;1.50;;;;;;;;;;5005159;28;20231;-92
2023/08/31 14:36:38;;;;;;;3.50;1.23;;;;;;;;;;4994141;28;20220;-92
2023/08/31 14:39:05;;;;;;;3.30;1.33;;;;;;;;;;5003908;28;20228;-92
2023/08/31 14:41:32;;;;;;;2.55;1.25;;;;;;;;;;5012727;28;20662;-92
2023/08/31 14:44:00;;;;;;;1.73;1.10;;;;;;;;;;5013403;28;20206;-92
2023/08/31 14:46:27;;;;;;;3.40;1.00;;;;;;;;;;5005962;28;20260;-90
2023/08/31 14:48:55;;;;;;;2.03;1.10;;;;;;;;;;4994104;28;20280;-90
2023/08/31 14:51:23;;;;;;;2.20;0.85;;;;;;;;;;5012874;28;20207;-90